Time;durP1;ratioP1;P1;durP2;ratioP2;P2;SDS_P1;SDS_P2;PMS_P1;PMS_P2;Temp;Humidity;BMP_temperature;BMP_pressure;BME280_temperature;BME280_humidity;BME280_pressure;Samples;Min_cycle;Max_cycle;Signal;HPM_P1;HPM_P2
2023/05/11 00:01:58;;;;;;;;;;;12.30;99.90;;;;;;5046010;28;19929;-66
2023/05/11 00:04:24;;;;;;;;;;;12.30;99.90;;;;;;5062650;28;19925;-66
2023/05/11 00:06:51;;;;;;;;;;;12.20;99.90;;;;;;5044123;28;19925;-66
2023/05/11 00:09:18;;;;;;;;;;;12.10;99.90;;;;;;5051987;28;19929;-66
2023/05/11 00:11:45;;;;;;;;;;;12.10;99.90;;;;;;5050465;28;19925;-66
2023/05/11 00:14:12;;;;;;;;;;;12.10;99.90;;;;;;5055944;28;19948;-66
2023/05/11 00:16:38;;;;;;;;;;;12.10;99.90;;;;;;5042533;28;19925;-66
2023/05/11 00:19:06;;;;;;;;;;;12.10;99.90;;;;;;5041279;28;19937;-66
2023/05/11 00:21:33;;;;;;;;;;;12.20;99.90;;;;;;5048850;28;19925;-66
2023/05/11 00:24:00;;;;;;;;;;;12.20;99.90;;;;;;5041312;28;19932;-66
2023/05/11 00:26:27;;;;;;;;;;;12.20;99.90;;;;;;5040335;28;19932;-66
2023/05/11 00:28:54;;;;;;;;;;;12.30;99.90;;;;;;5059157;28;19929;-66
2023/05/11 00:31:21;;;;;;;;;;;12.30;99.90;;;;;;5050593;28;19932;-67
2023/05/11 00:33:48;;;;;;;;;;;;;;;;;;5046643;28;20037;-67
2023/05/11 00:36:16;;;;;;;;;;;12.40;99.90;;;;;;5042635;28;19925;-67
2023/05/11 00:38:43;;;;;;;;;;;12.40;99.90;;;;;;5050469;28;19929;-67
2023/05/11 00:41:10;;;;;;;;;;;12.30;99.90;;;;;;5061575;28;19925;-67
2023/05/11 00:43:36;;;;;;;;;;;12.30;99.90;;;;;;5060666;28;19935;-67
2023/05/11 00:46:04;;;;;;;;;;;12.30;99.90;;;;;;5046868;28;19966;-67
2023/05/11 00:48:31;;;;;;;;;;;12.30;99.90;;;;;;5044275;28;19925;-67
2023/05/11 00:50:58;;;;;;;;;;;12.30;99.90;;;;;;5040788;28;20012;-67
2023/05/11 00:53:27;;;;;;;;;;;12.30;99.90;;;;;;5060115;28;19924;-67
2023/05/11 00:55:54;;;;;;;;;;;12.30;99.90;;;;;;5045846;28;19925;-67
2023/05/11 00:58:20;;;;;;;;;;;12.40;99.90;;;;;;5035707;28;19925;-67
2023/05/11 01:00:47;;;;;;;;;;;;;;;;;;5041336;28;19933;-67
2023/05/11 01:03:15;;;;;;;;;;;12.50;99.90;;;;;;5048201;28;19972;-67
2023/05/11 01:05:44;;;;;;;;;;;12.50;99.90;;;;;;5053846;28;19925;-67
2023/05/11 01:08:15;;;;;;;;;;;12.50;99.90;;;;;;5046115;28;19925;-67
2023/05/11 01:10:46;;;;;;;;;;;12.50;99.90;;;;;;5041735;28;20397;-67
2023/05/11 01:13:17;;;;;;;;;;;12.50;99.90;;;;;;5055982;28;19959;-67
2023/05/11 01:15:46;;;;;;;;;;;12.40;99.90;;;;;;5047922;28;19925;-67
2023/05/11 01:18:15;;;;;;;;;;;;;;;;;;5044782;28;19967;-67
2023/05/11 01:20:42;;;;;;;;;;;12.40;99.90;;;;;;5043276;28;19964;-67
2023/05/11 01:23:24;;;;;;;;;;;12.40;99.90;;;;;;5050829;28;20376;-67
2023/05/11 01:26:05;;;;;;;;;;;12.30;99.90;;;;;;5059941;28;19948;-67
2023/05/11 01:28:46;;;;;;;;;;;12.20;99.90;;;;;;5046211;28;20347;-67
2023/05/11 01:31:15;;;;;;;;;;;12.20;99.90;;;;;;5045088;28;19928;-67
2023/05/11 01:33:47;;;;;;;;;;;12.20;99.90;;;;;;5047162;28;19924;-67
2023/05/11 01:36:14;;;;;;;;;;;12.20;99.90;;;;;;5041585;28;19975;-67
2023/05/11 01:38:42;;;;;;;;;;;12.10;99.90;;;;;;5042676;28;19925;-67
2023/05/11 01:41:12;;;;;;;;;;;12.10;99.90;;;;;;5048579;28;19925;-67
2023/05/11 01:43:40;;;;;;;;;;;12.10;99.90;;;;;;5035690;28;19980;-67
2023/05/11 01:46:08;;;;;;;;;;;12.00;99.90;;;;;;5042750;28;19926;-67
2023/05/11 01:48:38;;;;;;;;;;;12.00;99.90;;;;;;5035690;28;19932;-67
2023/05/11 01:51:05;;;;;;;;;;;12.00;99.90;;;;;;5041131;28;19947;-67
2023/05/11 01:53:34;;;;;;;;;;;12.00;99.90;;;;;;5038864;28;19933;-67
2023/05/11 01:56:02;;;;;;;;;;;12.00;99.90;;;;;;5050659;28;19925;-67
2023/05/11 01:58:29;;;;;;;;;;;12.00;99.90;;;;;;5048529;28;20265;-67
2023/05/11 02:00:59;;;;;;;;;;;11.90;99.90;;;;;;5037086;28;19979;-67
2023/05/11 02:03:26;;;;;;;;;;;11.80;99.90;;;;;;5055825;28;19929;-67
2023/05/11 02:05:57;;;;;;;;;;;11.90;99.90;;;;;;5044995;28;19925;-67
2023/05/11 02:08:25;;;;;;;;;;;11.80;99.90;;;;;;5054332;28;20277;-67
2023/05/11 02:10:53;;;;;;;;;;;11.70;99.90;;;;;;5051208;28;20340;-67
2023/05/11 02:13:21;;;;;;;;;;;11.70;99.90;;;;;;5042828;28;19929;-67
2023/05/11 02:15:50;;;;;;;;;;;11.70;99.90;;;;;;5051674;28;20289;-67
2023/05/11 02:18:18;;;;;;;;;;;11.70;99.90;;;;;;5052281;28;19968;-67
2023/05/11 02:20:46;;;;;;;;;;;11.60;99.90;;;;;;5041382;28;19925;-67
2023/05/11 02:23:16;;;;;;;;;;;11.60;99.90;;;;;;5049411;28;19924;-67
2023/05/11 02:25:43;;;;;;;;;;;11.70;99.90;;;;;;5037266;28;19925;-67
2023/05/11 02:28:10;;;;;;;;;;;11.70;99.90;;;;;;5056723;28;19990;-67
2023/05/11 02:30:41;;;;;;;;;;;11.70;99.90;;;;;;5047293;28;20012;-67
2023/05/11 02:33:08;;;;;;;;;;;11.60;99.90;;;;;;5041232;28;19998;-67
2023/05/11 02:35:38;;;;;;;;;;;11.60;99.90;;;;;;5057279;28;19924;-67
2023/05/11 02:38:05;;;;;;;;;;;11.50;99.90;;;;;;5041500;28;19964;-67
2023/05/11 02:40:39;;;;;;;;;;;11.40;99.90;;;;;;5055770;28;20056;-67
2023/05/11 02:43:08;;;;;;;;;;;11.30;99.90;;;;;;5055662;28;20020;-67
2023/05/11 02:45:36;;;;;;;;;;;11.30;99.90;;;;;;5055533;28;19929;-67
2023/05/11 02:48:06;;;;;;;;;;;11.20;99.90;;;;;;5050162;28;19928;-67
2023/05/11 02:50:36;;;;;;;;;;;11.20;99.90;;;;;;5042292;28;19933;-67
2023/05/11 02:53:05;;;;;;;;;;;11.20;99.90;;;;;;5041650;28;19933;-67
2023/05/11 02:55:32;;;;;;;;;;;11.20;99.90;;;;;;5045601;28;20350;-67
2023/05/11 02:58:00;;;;;;;;;;;11.10;99.90;;;;;;5049913;28;19936;-67
2023/05/11 03:00:28;;;;;;;;;;;11.10;99.90;;;;;;5056795;28;19956;-67
2023/05/11 03:02:55;;;;;;;;;;;11.00;99.90;;;;;;5066969;28;20015;-67
2023/05/11 03:05:23;;;;;;;;;;;11.00;99.90;;;;;;5046834;28;19924;-67
2023/05/11 03:07:50;;;;;;;;;;;11.00;99.90;;;;;;5067959;28;19925;-67
2023/05/11 03:10:16;;;;;;;;;;;10.90;99.90;;;;;;5061972;28;19931;-67
2023/05/11 03:12:45;;;;;;;;;;;11.00;99.90;;;;;;5049160;28;20361;-67
2023/05/11 03:15:15;;;;;;;;;;;10.90;99.90;;;;;;5056003;28;19932;-67
2023/05/11 03:17:44;;;;;;;;;;;10.90;99.90;;;;;;5060732;28;19925;-67
2023/05/11 03:20:14;;;;;;;;;;;10.90;99.90;;;;;;5050251;28;19967;-67
2023/05/11 03:22:42;;;;;;;;;;;10.90;99.90;;;;;;5042724;28;19925;-68
2023/05/11 03:25:10;;;;;;;;;;;10.80;99.90;;;;;;5046709;28;19936;-67
2023/05/11 03:27:37;;;;;;;;;;;10.70;99.90;;;;;;5051018;28;19925;-67
2023/05/11 03:30:08;;;;;;;;;;;10.70;99.90;;;;;;5053459;28;20277;-67
2023/05/11 03:32:41;;;;;;;;;;;10.70;99.90;;;;;;5050499;28;19971;-67
2023/05/11 03:35:08;;;;;;;;;;;10.60;99.90;;;;;;5056779;28;19932;-67
2023/05/11 03:37:36;;;;;;;;;;;10.60;99.90;;;;;;5055384;28;19925;-67
2023/05/11 03:40:03;;;;;;;;;;;10.70;99.90;;;;;;5049374;28;19925;-67
2023/05/11 03:42:38;;;;;;;;;;;10.70;99.90;;;;;;5050070;28;19925;-67
2023/05/11 03:45:05;;;;;;;;;;;10.70;99.90;;;;;;5046524;28;20028;-67
2023/05/11 03:47:33;;;;;;;;;;;10.70;99.90;;;;;;5045088;28;20387;-67
2023/05/11 03:50:01;;;;;;;;;;;10.60;99.90;;;;;;5049453;28;19932;-67
2023/05/11 03:52:29;;;;;;;;;;;10.60;99.90;;;;;;5047266;28;20443;-67
2023/05/11 03:54:56;;;;;;;;;;;10.70;99.90;;;;;;5059151;28;19932;-67
2023/05/11 03:57:25;;;;;;;;;;;10.70;99.90;;;;;;5045460;28;19925;-67
2023/05/11 03:59:51;;;;;;;;;;;10.70;99.90;;;;;;5043383;28;19931;-67
2023/05/11 04:02:18;;;;;;;;;;;10.80;99.90;;;;;;5042827;28;19925;-67
2023/05/11 04:04:45;;;;;;;;;;;;;;;;;;5044649;28;19925;-67
2023/05/11 04:07:14;;;;;;;;;;;11.00;99.90;;;;;;5044244;28;19955;-67
2023/05/11 04:09:41;;;;;;;;;;;11.00;99.90;;;;;;5056864;28;19936;-67
2023/05/11 04:12:08;;;;;;;;;;;11.00;99.90;;;;;;5041528;28;19940;-67
2023/05/11 04:14:34;;;;;;;;;;;11.10;99.90;;;;;;5067793;28;19933;-67
2023/05/11 04:17:01;;;;;;;;;;;11.20;99.90;;;;;;5044436;28;19925;-67
2023/05/11 04:19:28;;;;;;;;;;;11.20;99.90;;;;;;5044542;28;19990;-67
2023/05/11 04:21:55;;;;;;;;;;;11.10;99.90;;;;;;5062956;28;19925;-67
2023/05/11 04:24:23;;;;;;;;;;;11.20;99.90;;;;;;5044533;28;19924;-67
2023/05/11 04:26:55;;;;;;;;;;;11.10;99.90;;;;;;5063601;28;19990;-67
2023/05/11 04:29:22;;;;;;;;;;;11.20;99.90;;;;;;5050104;28;20331;-67
2023/05/11 04:31:48;;;;;;;;;;;11.30;99.90;;;;;;5060762;28;19932;-67
2023/05/11 04:34:15;;;;;;;;;;;11.30;99.90;;;;;;5046897;28;19940;-67
2023/05/11 04:36:46;;;;;;;;;;;11.30;99.90;;;;;;5047501;28;19934;-67
2023/05/11 04:39:14;;;;;;;;;;;11.40;99.90;;;;;;5045172;28;19924;-71
2023/05/11 04:41:43;;;;;;;;;;;11.40;99.90;;;;;;5043825;28;20396;-68
2023/05/11 04:44:10;;;;;;;;;;;11.50;99.90;;;;;;5047395;28;19929;-68
2023/05/11 04:46:37;;;;;;;;;;;11.50;99.90;;;;;;5049232;28;19925;-68
2023/05/11 04:49:04;;;;;;;;;;;11.40;99.90;;;;;;5054639;28;19925;-75
2023/05/11 04:51:32;;;;;;;;;;;11.50;99.90;;;;;;5040254;28;19929;-67
2023/05/11 04:53:59;;;;;;;;;;;11.50;99.90;;;;;;5042010;28;19929;-67
2023/05/11 04:56:26;;;;;;;;;;;11.60;99.90;;;;;;5047766;28;20303;-67
2023/05/11 04:58:54;;;;;;;;;;;11.60;99.90;;;;;;5065246;28;19925;-67
2023/05/11 05:01:21;;;;;;;;;;;11.70;99.90;;;;;;5054025;28;19955;-68
2023/05/11 05:03:48;;;;;;;;;;;11.70;99.90;;;;;;5043908;28;19929;-67
2023/05/11 05:06:15;;;;;;;;;;;11.70;99.90;;;;;;5038797;28;19952;-66
2023/05/11 05:08:42;;;;;;;;;;;11.80;99.90;;;;;;5041896;28;19929;-67
2023/05/11 05:11:09;;;;;;;;;;;11.80;99.90;;;;;;5053758;28;19925;-67
2023/05/11 05:13:36;;;;;;;;;;;11.80;99.90;;;;;;5047864;28;19948;-68
2023/05/11 05:16:05;;;;;;;;;;;11.90;99.90;;;;;;5035462;28;19933;-68
2023/05/11 05:18:32;;;;;;;;;;;12.00;99.90;;;;;;5042673;28;19933;-67
2023/05/11 05:20:59;;;;;;;;;;;;;;;;;;5038876;28;19925;-68
2023/05/11 05:23:26;;;;;;;;;;;12.20;99.90;;;;;;5035313;28;20313;-67
2023/05/11 05:25:53;;;;;;;;;;;12.20;99.90;;;;;;5040334;28;19924;-67
2023/05/11 05:28:20;;;;;;;;;;;12.30;99.90;;;;;;5042968;28;19925;-68
2023/05/11 05:30:47;;;;;;;;;;;12.40;99.90;;;;;;5042459;28;19929;-67
2023/05/11 05:33:16;;;;;;;;;;;12.40;99.90;;;;;;5045117;28;19968;-67
2023/05/11 05:35:45;;;;;;;;;;;12.50;99.90;;;;;;5034291;28;19925;-67
2023/05/11 05:38:12;;;;;;;;;;;12.50;99.90;;;;;;5046433;28;20388;-67
2023/05/11 05:40:39;;;;;;;;;;;12.50;99.90;;;;;;5059465;28;19933;-68
2023/05/11 05:43:06;;;;;;;;;;;12.60;99.90;;;;;;5044527;28;19932;-67
2023/05/11 05:45:33;;;;;;;;;;;12.60;99.90;;;;;;5038893;28;19929;-68
2023/05/11 05:48:01;;;;;;;;;;;12.70;99.90;;;;;;5050453;28;19929;-68
2023/05/11 05:50:29;;;;;;;;;;;12.70;99.90;;;;;;5041783;28;19928;-67
2023/05/11 05:52:57;;;;;;;;;;;12.70;99.90;;;;;;5047533;28;19929;-67
2023/05/11 05:55:25;;;;;;;;;;;12.70;99.90;;;;;;5045114;28;19946;-67
2023/05/11 05:57:53;;;;;;;;;;;12.70;99.90;;;;;;5038864;28;20396;-67
2023/05/11 06:00:20;;;;;;;;;;;12.80;99.90;;;;;;5036300;28;19974;-67
2023/05/11 06:02:54;;;;;;;;;;;12.80;99.90;;;;;;5038365;28;19929;-67
2023/05/11 06:05:25;;;;;;;;;;;12.70;99.90;;;;;;5051560;28;19925;-68
2023/05/11 06:07:53;;;;;;;;;;;12.70;99.90;;;;;;5038843;28;19933;-68
2023/05/11 06:10:20;;;;;;;;;;;12.80;99.90;;;;;;5040561;28;19925;-68
2023/05/11 06:12:47;;;;;;;;;;;12.90;99.90;;;;;;5058874;28;19929;-67
2023/05/11 06:15:14;;;;;;;;;;;13.10;99.90;;;;;;5040146;28;19931;-67
2023/05/11 06:17:45;;;;;;;;;;;13.20;99.90;;;;;;5049192;28;19929;-68
2023/05/11 06:20:13;;;;;;;;;;;13.20;99.90;;;;;;5037229;28;19929;-68
2023/05/11 06:22:40;;;;;;;;;;;13.30;99.90;;;;;;5047566;28;19924;-68
2023/05/11 06:25:08;;;;;;;;;;;13.20;99.90;;;;;;5038051;28;19925;-68
2023/05/11 06:27:35;;;;;;;;;;;13.00;99.90;;;;;;5048453;28;19932;-67
2023/05/11 06:30:02;;;;;;;;;;;13.00;99.90;;;;;;5064865;28;19933;-68
2023/05/11 06:32:33;;;;;;;;;;;13.00;99.90;;;;;;5045821;28;19947;-68
2023/05/11 06:35:00;;;;;;;;;;;13.10;99.90;;;;;;5046036;28;19925;-68
2023/05/11 06:37:28;;;;;;;;;;;13.10;99.90;;;;;;5042157;28;20063;-68
2023/05/11 06:39:55;;;;;;;;;;;13.10;99.90;;;;;;5051563;28;19925;-67
2023/05/11 06:42:24;;;;;;;;;;;13.00;99.90;;;;;;5051759;28;19929;-68
2023/05/11 06:44:51;;;;;;;;;;;13.10;99.90;;;;;;5046188;28;19928;-67
2023/05/11 06:47:17;;;;;;;;;;;13.10;99.90;;;;;;5062422;28;19941;-68
2023/05/11 06:49:44;;;;;;;;;;;13.20;99.90;;;;;;5051873;28;20400;-68
2023/05/11 06:52:11;;;;;;;;;;;13.30;99.90;;;;;;5044982;28;20465;-67
2023/05/11 06:54:38;;;;;;;;;;;13.30;99.90;;;;;;5042394;28;19929;-68
2023/05/11 06:57:04;;;;;;;;;;;13.40;99.90;;;;;;5043845;28;19932;-68
2023/05/11 06:59:33;;;;;;;;;;;13.30;99.90;;;;;;5047997;28;20376;-68
2023/05/11 07:02:00;;;;;;;;;;;13.30;99.90;;;;;;5043222;28;19925;-67
2023/05/11 07:04:28;;;;;;;;;;;13.20;99.90;;;;;;5049491;28;19925;-68
2023/05/11 07:06:55;;;;;;;;;;;13.20;99.90;;;;;;5050077;28;19925;-68
2023/05/11 07:09:21;;;;;;;;;;;13.20;99.90;;;;;;5051281;28;19978;-67
2023/05/11 07:11:49;;;;;;;;;;;13.10;99.90;;;;;;5034356;28;19990;-68
2023/05/11 07:14:16;;;;;;;;;;;13.00;99.90;;;;;;5046736;28;19931;-67
2023/05/11 07:16:45;;;;;;;;;;;12.90;99.90;;;;;;5045072;28;19932;-68
2023/05/11 07:19:12;;;;;;;;;;;12.90;99.90;;;;;;5039249;28;20400;-67
2023/05/11 07:21:39;;;;;;;;;;;12.90;99.90;;;;;;5048085;28;20479;-68
2023/05/11 07:24:06;;;;;;;;;;;12.90;99.90;;;;;;5047152;28;19979;-67
2023/05/11 07:26:32;;;;;;;;;;;12.90;99.90;;;;;;5046389;28;19983;-67
2023/05/11 07:28:59;;;;;;;;;;;12.80;99.90;;;;;;5046964;28;19978;-68
2023/05/11 07:31:26;;;;;;;;;;;12.80;99.90;;;;;;5046335;28;19953;-67
2023/05/11 07:33:54;;;;;;;;;;;12.90;99.90;;;;;;5045716;28;19928;-67
2023/05/11 07:36:21;;;;;;;;;;;12.90;99.90;;;;;;5043867;28;19960;-67
2023/05/11 07:38:48;;;;;;;;;;;12.90;99.90;;;;;;5043503;28;19929;-67
2023/05/11 07:41:16;;;;;;;;;;;13.10;99.90;;;;;;5043304;28;19929;-67
2023/05/11 07:43:42;;;;;;;;;;;13.10;99.90;;;;;;5049219;28;19937;-67
2023/05/11 07:46:09;;;;;;;;;;;13.20;99.90;;;;;;5041385;28;20278;-67
2023/05/11 07:48:36;;;;;;;;;;;13.20;99.90;;;;;;5046860;28;19969;-67
2023/05/11 07:51:06;;;;;;;;;;;13.30;99.90;;;;;;5066885;28;19928;-67
2023/05/11 07:53:32;;;;;;;;;;;13.30;99.90;;;;;;5050743;28;20477;-67
2023/05/11 07:55:59;;;;;;;;;;;13.30;99.90;;;;;;5040992;28;19975;-67
2023/05/11 07:58:26;;;;;;;;;;;13.30;99.90;;;;;;5037088;28;19925;-67
2023/05/11 08:00:52;;;;;;;;;;;13.20;99.90;;;;;;5062231;28;20467;-67
2023/05/11 08:03:19;;;;;;;;;;;13.30;99.90;;;;;;5043859;28;20350;-67
2023/05/11 08:05:46;;;;;;;;;;;13.30;99.90;;;;;;5051944;28;19929;-67
2023/05/11 08:08:14;;;;;;;;;;;13.40;99.90;;;;;;5048535;28;20015;-67
2023/05/11 08:10:41;;;;;;;;;;;13.50;99.90;;;;;;5046890;28;20384;-68
2023/05/11 08:13:08;;;;;;;;;;;13.50;99.90;;;;;;5042376;28;19925;-68
2023/05/11 08:15:35;;;;;;;;;;;;;;;;;;5047831;28;19978;-67
2023/05/11 08:18:02;;;;;;;;;;;13.60;99.90;;;;;;5037889;28;19925;-68
2023/05/11 08:20:29;;;;;;;;;;;13.60;99.90;;;;;;5055032;28;20301;-68
2023/05/11 08:22:56;;;;;;;;;;;;;;;;;;5044514;28;19928;-67
2023/05/11 08:25:24;;;;;;;;;;;13.70;99.90;;;;;;5048000;28;19925;-68
2023/05/11 08:27:51;;;;;;;;;;;13.80;99.90;;;;;;5042514;28;19971;-68
2023/05/11 08:30:18;;;;;;;;;;;13.90;99.90;;;;;;5054563;28;19975;-68
2023/05/11 08:32:45;;;;;;;;;;;13.80;99.90;;;;;;5045421;28;19993;-67
2023/05/11 08:35:12;;;;;;;;;;;13.80;99.90;;;;;;5064023;28;19931;-67
2023/05/11 08:37:39;;;;;;;;;;;13.70;99.90;;;;;;5034929;28;19925;-68
2023/05/11 08:40:07;;;;;;;;;;;13.80;99.90;;;;;;5046435;28;19932;-67
2023/05/11 08:42:35;;;;;;;;;;;13.90;99.90;;;;;;5046879;28;19979;-68
2023/05/11 08:45:03;;;;;;;;;;;13.90;99.90;;;;;;5040718;28;19974;-67
2023/05/11 08:47:30;;;;;;;;;;;14.00;99.90;;;;;;5051781;28;19968;-67
2023/05/11 08:49:57;;;;;;;;;;;14.20;99.90;;;;;;5044674;28;19971;-68
2023/05/11 08:52:25;;;;;;;;;;;14.20;99.90;;;;;;5049278;28;19978;-68
2023/05/11 08:54:52;;;;;;;;;;;14.20;99.90;;;;;;5035859;28;19932;-67
2023/05/11 08:57:19;;;;;;;;;;;;;;;;;;5048694;28;19924;-68
2023/05/11 08:59:48;;;;;;;;;;;14.40;99.90;;;;;;5039223;28;19933;-67
2023/05/11 09:02:16;;;;;;;;;;;14.50;99.90;;;;;;5045617;28;19933;-68
2023/05/11 09:04:44;;;;;;;;;;;14.70;99.90;;;;;;5047789;28;20403;-67
2023/05/11 09:07:11;;;;;;;;;;;14.80;99.90;;;;;;5040475;28;19925;-67
2023/05/11 09:09:38;;;;;;;;;;;14.90;99.90;;;;;;5058783;28;19924;-68
2023/05/11 09:12:06;;;;;;;;;;;14.90;99.90;;;;;;5045203;28;20015;-67
2023/05/11 09:14:32;;;;;;;;;;;15.00;99.90;;;;;;5045492;28;19933;-67
2023/05/11 09:17:03;;;;;;;;;;;14.90;99.90;;;;;;5033412;28;19975;-68
2023/05/11 09:19:30;;;;;;;;;;;14.80;99.90;;;;;;5051536;28;19925;-67
2023/05/11 09:21:58;;;;;;;;;;;14.70;99.90;;;;;;5049965;28;19925;-67
2023/05/11 09:24:25;;;;;;;;;;;14.70;99.90;;;;;;5041124;28;20423;-67
2023/05/11 09:26:52;;;;;;;;;;;;;;;;;;5038414;28;19925;-67
2023/05/11 09:29:19;;;;;;;;;;;14.60;99.90;;;;;;5049657;28;19931;-68
2023/05/11 09:31:46;;;;;;;;;;;;;;;;;;5041774;28;19974;-68
2023/05/11 09:34:16;;;;;;;;;;;14.70;99.90;;;;;;5037735;28;19960;-67
2023/05/11 09:36:43;;;;;;;;;;;14.70;99.90;;;;;;5049452;28;20379;-68
2023/05/11 09:39:10;;;;;;;;;;;14.70;99.90;;;;;;5037675;28;19925;-68
2023/05/11 09:41:36;;;;;;;;;;;14.80;99.90;;;;;;5051481;28;19929;-68
2023/05/11 09:44:03;;;;;;;;;;;;;;;;;;5049125;28;20030;-67
2023/05/11 09:46:30;;;;;;;;;;;14.90;99.90;;;;;;5046947;28;19924;-67
2023/05/11 09:48:58;;;;;;;;;;;14.90;99.90;;;;;;5049917;28;19925;-68
2023/05/11 09:51:30;;;;;;;;;;;15.10;99.90;;;;;;5047901;28;20378;-67
2023/05/11 09:53:58;;;;;;;;;;;15.20;99.90;;;;;;5042871;28;20019;-67
2023/05/11 09:56:41;;;;;;;;;;;15.30;99.90;;;;;;5046292;28;20002;-68
2023/05/11 09:59:08;;;;;;;;;;;15.40;99.90;;;;;;5033432;28;19987;-67
2023/05/11 10:01:36;;;;;;;;;;;15.40;99.90;;;;;;5043728;28;19925;-68
2023/05/11 10:04:03;;;;;;;;;;;15.50;99.90;;;;;;5055355;28;19924;-68
2023/05/11 10:06:44;;;;;;;;;;;15.40;99.90;;;;;;5046873;28;20398;-68
2023/05/11 10:09:11;;;;;;;;;;;15.40;99.90;;;;;;5038023;28;19925;-68
2023/05/11 10:11:38;;;;;;;;;;;;;;;;;;5040632;28;19925;-67
2023/05/11 10:14:05;;;;;;;;;;;15.20;99.90;;;;;;5040113;28;20380;-68
2023/05/11 10:16:32;;;;;;;;;;;15.30;99.90;;;;;;5046748;28;19934;-68
2023/05/11 10:18:59;;;;;;;;;;;15.50;99.90;;;;;;5041156;28;20334;-68
2023/05/11 10:21:27;;;;;;;;;;;15.80;99.90;;;;;;5047370;28;20354;-67
2023/05/11 10:23:56;;;;;;;;;;;16.00;99.90;;;;;;5047789;28;20339;-68
2023/05/11 10:26:24;;;;;;;;;;;15.90;99.90;;;;;;5043213;28;19928;-68
2023/05/11 10:28:52;;;;;;;;;;;15.90;99.90;;;;;;5049132;28;19924;-68
2023/05/11 10:31:22;;;;;;;;;;;15.90;99.90;;;;;;5049110;28;20454;-67
2023/05/11 10:33:51;;;;;;;;;;;15.90;99.90;;;;;;5044741;28;19925;-68
2023/05/11 10:36:17;;;;;;;;;;;15.70;99.90;;;;;;5048917;28;19956;-68
2023/05/11 10:38:44;;;;;;;;;;;15.50;99.90;;;;;;5044240;28;19932;-68
2023/05/11 10:41:12;;;;;;;;;;;;;;;;;;5044522;28;19925;-67
2023/05/11 10:43:47;;;;;;;;;;;15.20;99.90;;;;;;5055993;28;19924;-68
2023/05/11 10:46:22;;;;;;;;;;;14.90;99.90;;;;;;5038741;28;19929;-67
2023/05/11 10:48:55;;;;;;;;;;;14.60;99.90;;;;;;5036346;28;19964;-68
2023/05/11 10:51:33;;;;;;;;;;;14.40;99.90;;;;;;5046823;28;19929;-67
2023/05/11 10:54:11;;;;;;;;;;;14.30;99.90;;;;;;5043775;28;20316;-67
2023/05/11 10:56:50;;;;;;;;;;;14.20;99.90;;;;;;5044657;28;19948;-67
2023/05/11 10:59:28;;;;;;;;;;;14.20;99.90;;;;;;5062153;28;20454;-67
2023/05/11 11:01:57;;;;;;;;;;;14.20;99.90;;;;;;5043673;28;19928;-67
2023/05/11 11:04:24;;;;;;;;;;;14.10;99.90;;;;;;5049087;28;19925;-68
2023/05/11 11:07:03;;;;;;;;;;;14.20;99.90;;;;;;5050913;28;19924;-68
2023/05/11 11:09:49;;;;;;;;;;;14.20;99.90;;;;;;5046438;28;19925;-67
2023/05/11 11:12:16;;;;;;;;;;;14.10;99.90;;;;;;5041515;28;19925;-67
2023/05/11 11:14:54;;;;;;;;;;;14.30;99.90;;;;;;5047923;28;19925;-68
2023/05/11 11:17:22;;;;;;;;;;;14.30;99.90;;;;;;5046953;28;19971;-67
2023/05/11 11:19:49;;;;;;;;;;;14.50;99.90;;;;;;5047777;28;19929;-68
2023/05/11 11:22:34;;;;;;;;;;;14.50;99.90;;;;;;5041698;28;19929;-68
2023/05/11 11:25:03;;;;;;;;;;;14.60;99.90;;;;;;5044674;28;19929;-67
2023/05/11 11:27:45;;;;;;;;;;;14.60;99.90;;;;;;5052343;28;19925;-67
2023/05/11 11:30:17;;;;;;;;;;;14.70;99.90;;;;;;5049076;28;19972;-68
2023/05/11 11:32:44;;;;;;;;;;;14.80;99.90;;;;;;5033999;28;19925;-67
2023/05/11 11:35:26;;;;;;;;;;;14.90;99.90;;;;;;5048643;28;19925;-68
2023/05/11 11:38:00;;;;;;;;;;;15.10;99.90;;;;;;5033901;28;19991;-68
2023/05/11 11:40:35;;;;;;;;;;;15.50;99.90;;;;;;5065596;28;19929;-68
2023/05/11 11:43:10;;;;;;;;;;;15.80;99.90;;;;;;5061656;28;19932;-68
2023/05/11 11:45:38;;;;;;;;;;;16.10;99.90;;;;;;5065484;28;19925;-68
2023/05/11 11:48:12;;;;;;;;;;;16.50;99.90;;;;;;5044950;28;19932;-67
2023/05/11 11:50:41;;;;;;;;;;;16.80;99.90;;;;;;5035401;28;19925;-68
2023/05/11 11:53:12;;;;;;;;;;;17.20;99.90;;;;;;5040470;28;20439;-67
2023/05/11 11:55:45;;;;;;;;;;;17.30;99.90;;;;;;5041823;28;20474;-68
2023/05/11 11:58:13;;;;;;;;;;;17.20;99.90;;;;;;5046015;28;19929;-67
2023/05/11 12:00:41;;;;;;;;;;;17.00;99.90;;;;;;5034036;28;19925;-68
2023/05/11 12:03:10;;;;;;;;;;;16.80;99.90;;;;;;5046019;28;20454;-68
2023/05/11 12:05:37;;;;;;;;;;;16.70;99.90;;;;;;5047539;28;19925;-68
2023/05/11 12:08:06;;;;;;;;;;;16.80;99.90;;;;;;5038417;28;19929;-67
2023/05/11 12:10:33;;;;;;;;;;;16.70;99.90;;;;;;5039870;28;19933;-67
2023/05/11 12:13:00;;;;;;;;;;;16.70;99.90;;;;;;5044499;28;19925;-67
2023/05/11 12:15:28;;;;;;;;;;;16.70;99.90;;;;;;5064071;28;19986;-68
2023/05/11 12:17:56;;;;;;;;;;;16.80;99.90;;;;;;5063117;28;19925;-68
2023/05/11 12:20:24;;;;;;;;;;;17.00;99.90;;;;;;5040349;28;19925;-67
2023/05/11 12:22:52;;;;;;;;;;;17.10;99.90;;;;;;5040883;28;19925;-67
2023/05/11 12:25:20;;;;;;;;;;;17.20;99.90;;;;;;5048935;28;19955;-67
2023/05/11 12:27:47;;;;;;;;;;;17.40;99.90;;;;;;5045236;28;19925;-67
2023/05/11 12:30:24;;;;;;;;;;;17.50;99.90;;;;;;5063139;28;19925;-67
2023/05/11 12:32:51;;;;;;;;;;;17.70;99.90;;;;;;5045727;28;19948;-68
2023/05/11 12:35:24;;;;;;;;;;;18.00;99.90;;;;;;5064104;28;19972;-68
2023/05/11 12:37:51;;;;;;;;;;;18.50;99.90;;;;;;5038026;28;19975;-67
2023/05/11 12:40:18;;;;;;;;;;;18.80;99.90;;;;;;5043715;28;20393;-68
2023/05/11 12:42:51;;;;;;;;;;;19.20;99.90;;;;;;5045352;28;19925;-68
2023/05/11 12:45:18;;;;;;;;;;;19.70;99.90;;;;;;5046070;28;19968;-68
2023/05/11 12:47:45;;;;;;;;;;;19.40;99.90;;;;;;5046132;28;20459;-69
2023/05/11 12:50:12;;;;;;;;;;;19.30;99.90;;;;;;5046500;28;20354;-68
2023/05/11 12:52:40;;;;;;;;;;;19.30;99.90;;;;;;5045140;28;19937;-68
2023/05/11 12:55:08;;;;;;;;;;;18.90;99.90;;;;;;5045393;28;19924;-68
2023/05/11 12:57:35;;;;;;;;;;;19.00;99.90;;;;;;5037543;28;20388;-68
2023/05/11 13:00:07;;;;;;;;;;;19.20;99.90;;;;;;5040883;28;19925;-68
2023/05/11 13:02:34;;;;;;;;;;;19.40;99.90;;;;;;5043627;28;19935;-68
2023/05/11 13:05:09;;;;;;;;;;;19.70;99.90;;;;;;5043471;28;19939;-69
2023/05/11 13:07:36;;;;;;;;;;;19.70;99.90;;;;;;5046946;28;19925;-68
2023/05/11 13:10:04;;;;;;;;;;;19.60;99.90;;;;;;5038117;28;20044;-68
2023/05/11 13:12:32;;;;;;;;;;;19.40;99.90;;;;;;5047757;28;19964;-68
2023/05/11 13:15:06;;;;;;;;;;;19.30;99.90;;;;;;5043584;28;19925;-69
2023/05/11 13:17:34;;;;;;;;;;;19.10;99.90;;;;;;5041668;28;20358;-68
2023/05/11 13:20:16;;;;;;;;;;;19.30;99.90;;;;;;5048903;28;19975;-68
2023/05/11 13:22:43;;;;;;;;;;;19.50;99.90;;;;;;5036519;28;19978;-69
2023/05/11 13:25:12;;;;;;;;;;;19.60;99.90;;;;;;5040252;28;19925;-68
2023/05/11 13:27:38;;;;;;;;;;;19.70;99.90;;;;;;5051282;28;19982;-68
2023/05/11 13:30:06;;;;;;;;;;;19.50;99.90;;;;;;5048771;28;19929;-68
2023/05/11 13:32:35;;;;;;;;;;;19.00;99.90;;;;;;5048284;28;20262;-68
2023/05/11 13:35:02;;;;;;;;;;;18.70;99.90;;;;;;5042481;28;19925;-68
2023/05/11 13:37:29;;;;;;;;;;;18.80;99.90;;;;;;5040246;28;19929;-68
2023/05/11 13:39:56;;;;;;;;;;;19.00;99.90;;;;;;5044802;28;19937;-68
2023/05/11 13:42:24;;;;;;;;;;;19.50;99.90;;;;;;5034824;28;19925;-69
2023/05/11 13:44:51;;;;;;;;;;;19.80;99.90;;;;;;5048137;28;19925;-68
2023/05/11 13:47:17;;;;;;;;;;;19.90;99.90;;;;;;5054393;28;19960;-68
2023/05/11 13:49:44;;;;;;;;;;;20.10;99.90;;;;;;5037731;28;19979;-68
2023/05/11 13:52:11;;;;;;;;;;;20.10;99.90;;;;;;5042871;28;19956;-69
2023/05/11 13:54:38;;;;;;;;;;;20.10;99.90;;;;;;5039609;28;20384;-68
2023/05/11 13:57:05;;;;;;;;;;;20.20;99.90;;;;;;5045980;28;19925;-68
2023/05/11 13:59:33;;;;;;;;;;;19.90;99.90;;;;;;5050720;28;20530;-68
2023/05/11 14:02:00;;;;;;;;;;;20.20;99.90;;;;;;5048009;28;19924;-68
2023/05/11 14:04:27;;;;;;;;;;;20.50;99.90;;;;;;5052563;28;19925;-68
2023/05/11 14:06:53;;;;;;;;;;;20.50;99.90;;;;;;5043903;28;19925;-68
2023/05/11 14:09:22;;;;;;;;;;;20.80;99.90;;;;;;5042979;28;19925;-68
2023/05/11 14:11:49;;;;;;;;;;;21.10;99.90;;;;;;5049536;28;19925;-69
2023/05/11 14:14:15;;;;;;;;;;;21.50;99.90;;;;;;5063682;28;20016;-68
2023/05/11 14:16:44;;;;;;;;;;;21.20;99.90;;;;;;5047752;28;19925;-68
2023/05/11 14:19:11;;;;;;;;;;;21.00;99.90;;;;;;5047901;28;19925;-68
2023/05/11 14:21:37;;;;;;;;;;;20.80;99.90;;;;;;5050168;28;19928;-68
2023/05/11 14:24:04;;;;;;;;;;;20.80;99.90;;;;;;5043139;28;19929;-69
2023/05/11 14:26:31;;;;;;;;;;;20.70;99.90;;;;;;5040114;28;19932;-68
2023/05/11 14:28:58;;;;;;;;;;;20.40;99.90;;;;;;5052716;28;19932;-69